sensor_id;sensor_type;location;lat;lon;timestamp;P1;durP1;ratioP1;P2;durP2;ratioP2
22107;SDS011;11220;48.812;9.128;2022-10-31T00:00:17;0.60;;;0.60;;
22107;SDS011;11220;48.812;9.128;2022-10-31T00:02:43;0.93;;;0.52;;
22107;SDS011;11220;48.812;9.128;2022-10-31T00:05:08;0.38;;;0.38;;
22107;SDS011;11220;48.812;9.128;2022-10-31T00:07:34;0.43;;;0.40;;
22107;SDS011;11220;48.812;9.128;2022-10-31T00:10:00;0.80;;;0.60;;
22107;SDS011;11220;48.812;9.128;2022-10-31T00:12:25;0.73;;;0.40;;
22107;SDS011;11220;48.812;9.128;2022-10-31T00:14:51;0.40;;;0.40;;
22107;SDS011;11220;48.812;9.128;2022-10-31T00:17:17;0.60;;;0.57;;
22107;SDS011;11220;48.812;9.128;2022-10-31T00:19:42;1.33;;;0.50;;
22107;SDS011;11220;48.812;9.128;2022-10-31T00:22:08;0.57;;;0.40;;
22107;SDS011;11220;48.812;9.128;2022-10-31T00:24:34;0.73;;;0.50;;
22107;SDS011;11220;48.812;9.128;2022-10-31T00:26:59;1.23;;;0.60;;
22107;SDS011;11220;48.812;9.128;2022-10-31T00:29:25;0.88;;;0.55;;
22107;SDS011;11220;48.812;9.128;2022-10-31T00:31:51;0.50;;;0.40;;
22107;SDS011;11220;48.812;9.128;2022-10-31T00:34:17;0.40;;;0.40;;
22107;SDS011;11220;48.812;9.128;2022-10-31T00:36:43;0.50;;;0.50;;
22107;SDS011;11220;48.812;9.128;2022-10-31T00:39:09;0.57;;;0.40;;
22107;SDS011;11220;48.812;9.128;2022-10-31T00:41:34;0.43;;;0.30;;
22107;SDS011;11220;48.812;9.128;2022-10-31T00:44:00;0.70;;;0.50;;
22107;SDS011;11220;48.812;9.128;2022-10-31T00:46:26;0.68;;;0.50;;
22107;SDS011;11220;48.812;9.128;2022-10-31T00:48:51;0.68;;;0.47;;
22107;SDS011;11220;48.812;9.128;2022-10-31T00:51:17;0.40;;;0.40;;
22107;SDS011;11220;48.812;9.128;2022-10-31T00:53:43;0.68;;;0.40;;
22107;SDS011;11220;48.812;9.128;2022-10-31T00:56:09;0.50;;;0.30;;
22107;SDS011;11220;48.812;9.128;2022-10-31T00:58:35;0.70;;;0.52;;
22107;SDS011;11220;48.812;9.128;2022-10-31T01:01:00;0.57;;;0.50;;
22107;SDS011;11220;48.812;9.128;2022-10-31T01:03:27;0.65;;;0.47;;
22107;SDS011;11220;48.812;9.128;2022-10-31T01:05:58;0.75;;;0.40;;
22107;SDS011;11220;48.812;9.128;2022-10-31T01:08:24;0.50;;;0.38;;
22107;SDS011;11220;48.812;9.128;2022-10-31T01:13:37;0.75;;;0.55;;
22107;SDS011;11220;48.812;9.128;2022-10-31T01:16:04;0.70;;;0.60;;
22107;SDS011;11220;48.812;9.128;2022-10-31T01:18:31;0.40;;;0.30;;
22107;SDS011;11220;48.812;9.128;2022-10-31T01:20:58;0.85;;;0.55;;
22107;SDS011;11220;48.812;9.128;2022-10-31T01:23:24;0.50;;;0.40;;
22107;SDS011;11220;48.812;9.128;2022-10-31T01:25:49;0.50;;;0.40;;
22107;SDS011;11220;48.812;9.128;2022-10-31T01:28:26;0.40;;;0.40;;
22107;SDS011;11220;48.812;9.128;2022-10-31T01:30:52;0.20;;;0.20;;
22107;SDS011;11220;48.812;9.128;2022-10-31T01:33:17;0.50;;;0.40;;
22107;SDS011;11220;48.812;9.128;2022-10-31T01:35:43;0.60;;;0.60;;
22107;SDS011;11220;48.812;9.128;2022-10-31T01:38:08;1.02;;;0.60;;
22107;SDS011;11220;48.812;9.128;2022-10-31T01:40:34;0.50;;;0.40;;
22107;SDS011;11220;48.812;9.128;2022-10-31T01:43:00;0.32;;;0.32;;
22107;SDS011;11220;48.812;9.128;2022-10-31T01:45:28;0.50;;;0.50;;
22107;SDS011;11220;48.812;9.128;2022-10-31T01:47:54;0.35;;;0.35;;
22107;SDS011;11220;48.812;9.128;2022-10-31T01:50:26;0.40;;;0.40;;
22107;SDS011;11220;48.812;9.128;2022-10-31T01:52:57;0.50;;;0.40;;
22107;SDS011;11220;48.812;9.128;2022-10-31T01:55:28;1.10;;;0.57;;
22107;SDS011;11220;48.812;9.128;2022-10-31T01:57:58;0.63;;;0.40;;
22107;SDS011;11220;48.812;9.128;2022-10-31T02:00:29;0.30;;;0.30;;
22107;SDS011;11220;48.812;9.128;2022-10-31T02:02:55;0.50;;;0.50;;
22107;SDS011;11220;48.812;9.128;2022-10-31T02:05:22;0.50;;;0.40;;
22107;SDS011;11220;48.812;9.128;2022-10-31T02:07:57;0.30;;;0.30;;
22107;SDS011;11220;48.812;9.128;2022-10-31T02:10:30;0.47;;;0.47;;
22107;SDS011;11220;48.812;9.128;2022-10-31T02:12:57;1.20;;;0.35;;
22107;SDS011;11220;48.812;9.128;2022-10-31T02:15:24;0.60;;;0.40;;
22107;SDS011;11220;48.812;9.128;2022-10-31T02:17:51;0.40;;;0.40;;
22107;SDS011;11220;48.812;9.128;2022-10-31T02:20:17;0.50;;;0.40;;
22107;SDS011;11220;48.812;9.128;2022-10-31T02:28:38;0.43;;;0.30;;
22107;SDS011;11220;48.812;9.128;2022-10-31T02:31:33;0.33;;;0.30;;
22107;SDS011;11220;48.812;9.128;2022-10-31T02:34:16;0.30;;;0.30;;
22107;SDS011;11220;48.812;9.128;2022-10-31T02:36:49;0.47;;;0.38;;
22107;SDS011;11220;48.812;9.128;2022-10-31T02:39:34;0.30;;;0.30;;
22107;SDS011;11220;48.812;9.128;2022-10-31T02:42:13;0.40;;;0.30;;
22107;SDS011;11220;48.812;9.128;2022-10-31T02:47:45;0.30;;;0.30;;
22107;SDS011;11220;48.812;9.128;2022-10-31T02:50:21;0.57;;;0.40;;
22107;SDS011;11220;48.812;9.128;2022-10-31T02:52:50;0.40;;;0.40;;
22107;SDS011;11220;48.812;9.128;2022-10-31T02:57:52;0.47;;;0.47;;
22107;SDS011;11220;48.812;9.128;2022-10-31T03:00:21;0.77;;;0.43;;
22107;SDS011;11220;48.812;9.128;2022-10-31T03:03:01;0.40;;;0.40;;
22107;SDS011;11220;48.812;9.128;2022-10-31T03:11:01;0.30;;;0.30;;
22107;SDS011;11220;48.812;9.128;2022-10-31T03:16:40;0.35;;;0.35;;
22107;SDS011;11220;48.812;9.128;2022-10-31T03:19:23;0.40;;;0.40;;
22107;SDS011;11220;48.812;9.128;2022-10-31T03:21:58;0.38;;;0.38;;
22107;SDS011;11220;48.812;9.128;2022-10-31T03:24:36;0.50;;;0.30;;
22107;SDS011;11220;48.812;9.128;2022-10-31T03:27:03;1.05;;;0.30;;
22107;SDS011;11220;48.812;9.128;2022-10-31T03:29:32;0.65;;;0.50;;
22107;SDS011;11220;48.812;9.128;2022-10-31T03:32:02;0.38;;;0.30;;
22107;SDS011;11220;48.812;9.128;2022-10-31T03:34:35;0.30;;;0.30;;
22107;SDS011;11220;48.812;9.128;2022-10-31T03:37:03;0.40;;;0.40;;
22107;SDS011;11220;48.812;9.128;2022-10-31T03:39:31;0.40;;;0.40;;
22107;SDS011;11220;48.812;9.128;2022-10-31T03:42:03;0.68;;;0.30;;
22107;SDS011;11220;48.812;9.128;2022-10-31T03:44:32;0.60;;;0.43;;
22107;SDS011;11220;48.812;9.128;2022-10-31T03:47:00;0.63;;;0.40;;
22107;SDS011;11220;48.812;9.128;2022-10-31T03:49:27;0.40;;;0.40;;
22107;SDS011;11220;48.812;9.128;2022-10-31T03:51:59;0.55;;;0.40;;
22107;SDS011;11220;48.812;9.128;2022-10-31T03:54:49;0.60;;;0.30;;
22107;SDS011;11220;48.812;9.128;2022-10-31T04:00:07;0.40;;;0.32;;
22107;SDS011;11220;48.812;9.128;2022-10-31T04:02:36;0.30;;;0.30;;
22107;SDS011;11220;48.812;9.128;2022-10-31T04:05:06;0.40;;;0.40;;
22107;SDS011;11220;48.812;9.128;2022-10-31T04:07:34;0.57;;;0.40;;
22107;SDS011;11220;48.812;9.128;2022-10-31T04:10:09;0.40;;;0.38;;
22107;SDS011;11220;48.812;9.128;2022-10-31T04:15:04;0.70;;;0.40;;
22107;SDS011;11220;48.812;9.128;2022-10-31T04:17:33;0.38;;;0.32;;
22107;SDS011;11220;48.812;9.128;2022-10-31T04:20:03;0.63;;;0.50;;
22107;SDS011;11220;48.812;9.128;2022-10-31T04:22:30;0.47;;;0.43;;
22107;SDS011;11220;48.812;9.128;2022-10-31T04:24:55;0.40;;;0.40;;
22107;SDS011;11220;48.812;9.128;2022-10-31T04:27:21;0.45;;;0.45;;
22107;SDS011;11220;48.812;9.128;2022-10-31T04:29:46;0.68;;;0.30;;
22107;SDS011;11220;48.812;9.128;2022-10-31T04:32:12;0.40;;;0.40;;
22107;SDS011;11220;48.812;9.128;2022-10-31T04:34:38;0.30;;;0.30;;
22107;SDS011;11220;48.812;9.128;2022-10-31T04:37:03;0.50;;;0.50;;
22107;SDS011;11220;48.812;9.128;2022-10-31T04:39:29;0.40;;;0.40;;
22107;SDS011;11220;48.812;9.128;2022-10-31T04:41:55;0.93;;;0.45;;
22107;SDS011;11220;48.812;9.128;2022-10-31T04:44:20;0.90;;;0.32;;
22107;SDS011;11220;48.812;9.128;2022-10-31T04:46:46;0.70;;;0.35;;
22107;SDS011;11220;48.812;9.128;2022-10-31T04:49:11;0.50;;;0.40;;
22107;SDS011;11220;48.812;9.128;2022-10-31T04:51:37;0.30;;;0.30;;
22107;SDS011;11220;48.812;9.128;2022-10-31T04:54:03;0.60;;;0.22;;
22107;SDS011;11220;48.812;9.128;2022-10-31T04:56:28;0.60;;;0.35;;
22107;SDS011;11220;48.812;9.128;2022-10-31T04:58:54;0.43;;;0.30;;
22107;SDS011;11220;48.812;9.128;2022-10-31T05:01:20;0.60;;;0.30;;
22107;SDS011;11220;48.812;9.128;2022-10-31T05:03:45;0.60;;;0.50;;
22107;SDS011;11220;48.812;9.128;2022-10-31T05:06:11;0.65;;;0.40;;
22107;SDS011;11220;48.812;9.128;2022-10-31T05:08:36;0.55;;;0.30;;
22107;SDS011;11220;48.812;9.128;2022-10-31T05:11:02;0.65;;;0.40;;
22107;SDS011;11220;48.812;9.128;2022-10-31T05:13:29;0.40;;;0.40;;
22107;SDS011;11220;48.812;9.128;2022-10-31T05:15:55;0.55;;;0.40;;
22107;SDS011;11220;48.812;9.128;2022-10-31T05:18:20;0.60;;;0.43;;
22107;SDS011;11220;48.812;9.128;2022-10-31T05:20:46;0.40;;;0.30;;
22107;SDS011;11220;48.812;9.128;2022-10-31T05:23:12;0.65;;;0.40;;
22107;SDS011;11220;48.812;9.128;2022-10-31T05:25:39;1.15;;;0.40;;
22107;SDS011;11220;48.812;9.128;2022-10-31T05:28:05;0.50;;;0.30;;
22107;SDS011;11220;48.812;9.128;2022-10-31T05:30:31;0.35;;;0.28;;
22107;SDS011;11220;48.812;9.128;2022-10-31T05:32:57;0.50;;;0.43;;
22107;SDS011;11220;48.812;9.128;2022-10-31T05:35:24;0.32;;;0.32;;
22107;SDS011;11220;48.812;9.128;2022-10-31T05:37:55;0.32;;;0.32;;
22107;SDS011;11220;48.812;9.128;2022-10-31T05:40:20;0.35;;;0.35;;
22107;SDS011;11220;48.812;9.128;2022-10-31T05:42:47;0.32;;;0.30;;
22107;SDS011;11220;48.812;9.128;2022-10-31T05:45:16;0.50;;;0.38;;
22107;SDS011;11220;48.812;9.128;2022-10-31T05:47:42;0.60;;;0.30;;
22107;SDS011;11220;48.812;9.128;2022-10-31T05:50:14;0.30;;;0.30;;
22107;SDS011;11220;48.812;9.128;2022-10-31T05:52:40;0.35;;;0.35;;
22107;SDS011;11220;48.812;9.128;2022-10-31T05:55:05;0.40;;;0.40;;
22107;SDS011;11220;48.812;9.128;2022-10-31T05:57:31;0.40;;;0.40;;
22107;SDS011;11220;48.812;9.128;2022-10-31T05:59:58;0.60;;;0.40;;
22107;SDS011;11220;48.812;9.128;2022-10-31T06:02:24;0.68;;;0.38;;
22107;SDS011;11220;48.812;9.128;2022-10-31T06:04:50;0.35;;;0.30;;
22107;SDS011;11220;48.812;9.128;2022-10-31T06:07:15;0.57;;;0.40;;
22107;SDS011;11220;48.812;9.128;2022-10-31T06:09:41;0.57;;;0.35;;
22107;SDS011;11220;48.812;9.128;2022-10-31T06:12:06;0.32;;;0.30;;
22107;SDS011;11220;48.812;9.128;2022-10-31T06:14:32;0.63;;;0.40;;
22107;SDS011;11220;48.812;9.128;2022-10-31T06:16:57;0.57;;;0.38;;
22107;SDS011;11220;48.812;9.128;2022-10-31T06:19:23;0.40;;;0.38;;
22107;SDS011;11220;48.812;9.128;2022-10-31T06:21:48;0.47;;;0.40;;
22107;SDS011;11220;48.812;9.128;2022-10-31T06:24:14;0.43;;;0.35;;
22107;SDS011;11220;48.812;9.128;2022-10-31T06:26:40;0.30;;;0.30;;
22107;SDS011;11220;48.812;9.128;2022-10-31T06:29:06;0.50;;;0.45;;
22107;SDS011;11220;48.812;9.128;2022-10-31T06:31:31;0.40;;;0.40;;
22107;SDS011;11220;48.812;9.128;2022-10-31T06:33:57;0.43;;;0.40;;
22107;SDS011;11220;48.812;9.128;2022-10-31T06:36:22;0.40;;;0.30;;
22107;SDS011;11220;48.812;9.128;2022-10-31T06:38:48;0.40;;;0.30;;
22107;SDS011;11220;48.812;9.128;2022-10-31T06:41:13;0.35;;;0.30;;
22107;SDS011;11220;48.812;9.128;2022-10-31T06:43:39;0.20;;;0.20;;
22107;SDS011;11220;48.812;9.128;2022-10-31T06:46:05;0.63;;;0.40;;
22107;SDS011;11220;48.812;9.128;2022-10-31T06:48:30;0.32;;;0.30;;
22107;SDS011;11220;48.812;9.128;2022-10-31T06:50:57;0.47;;;0.40;;
22107;SDS011;11220;48.812;9.128;2022-10-31T06:53:26;0.57;;;0.40;;
22107;SDS011;11220;48.812;9.128;2022-10-31T06:55:54;0.63;;;0.40;;
22107;SDS011;11220;48.812;9.128;2022-10-31T06:58:21;0.63;;;0.40;;
22107;SDS011;11220;48.812;9.128;2022-10-31T07:00:46;0.80;;;0.50;;
22107;SDS011;11220;48.812;9.128;2022-10-31T07:03:12;0.63;;;0.30;;
22107;SDS011;11220;48.812;9.128;2022-10-31T07:05:40;0.40;;;0.40;;
22107;SDS011;11220;48.812;9.128;2022-10-31T07:08:09;0.52;;;0.40;;
22107;SDS011;11220;48.812;9.128;2022-10-31T07:13:03;0.40;;;0.32;;
22107;SDS011;11220;48.812;9.128;2022-10-31T07:15:35;0.60;;;0.40;;
22107;SDS011;11220;48.812;9.128;2022-10-31T07:18:02;0.65;;;0.30;;
22107;SDS011;11220;48.812;9.128;2022-10-31T07:20:29;0.40;;;0.40;;
22107;SDS011;11220;48.812;9.128;2022-10-31T07:22:54;0.50;;;0.40;;
22107;SDS011;11220;48.812;9.128;2022-10-31T07:25:20;0.60;;;0.35;;
22107;SDS011;11220;48.812;9.128;2022-10-31T07:27:46;0.68;;;0.28;;
22107;SDS011;11220;48.812;9.128;2022-10-31T07:30:12;0.90;;;0.30;;
22107;SDS011;11220;48.812;9.128;2022-10-31T07:32:43;0.30;;;0.30;;
22107;SDS011;11220;48.812;9.128;2022-10-31T07:35:12;0.50;;;0.38;;
22107;SDS011;11220;48.812;9.128;2022-10-31T07:37:42;0.70;;;0.30;;
22107;SDS011;11220;48.812;9.128;2022-10-31T07:40:08;0.30;;;0.30;;
22107;SDS011;11220;48.812;9.128;2022-10-31T07:42:37;0.30;;;0.30;;
22107;SDS011;11220;48.812;9.128;2022-10-31T07:45:04;0.30;;;0.30;;
22107;SDS011;11220;48.812;9.128;2022-10-31T07:47:38;0.50;;;0.30;;
22107;SDS011;11220;48.812;9.128;2022-10-31T07:50:08;0.40;;;0.40;;
22107;SDS011;11220;48.812;9.128;2022-10-31T07:52:35;0.40;;;0.30;;
22107;SDS011;11220;48.812;9.128;2022-10-31T07:55:01;0.25;;;0.20;;
22107;SDS011;11220;48.812;9.128;2022-10-31T07:57:26;0.45;;;0.40;;
22107;SDS011;11220;48.812;9.128;2022-10-31T07:59:52;0.68;;;0.30;;
22107;SDS011;11220;48.812;9.128;2022-10-31T08:02:17;0.40;;;0.30;;
22107;SDS011;11220;48.812;9.128;2022-10-31T08:04:43;0.30;;;0.30;;
22107;SDS011;11220;48.812;9.128;2022-10-31T08:07:08;0.50;;;0.40;;
22107;SDS011;11220;48.812;9.128;2022-10-31T08:09:34;0.50;;;0.40;;
22107;SDS011;11220;48.812;9.128;2022-10-31T08:12:00;0.70;;;0.40;;
22107;SDS011;11220;48.812;9.128;2022-10-31T08:14:26;0.30;;;0.30;;
22107;SDS011;11220;48.812;9.128;2022-10-31T08:16:52;0.40;;;0.40;;
22107;SDS011;11220;48.812;9.128;2022-10-31T08:19:18;0.65;;;0.30;;
22107;SDS011;11220;48.812;9.128;2022-10-31T08:21:43;0.43;;;0.32;;
22107;SDS011;11220;48.812;9.128;2022-10-31T08:24:09;0.40;;;0.40;;
22107;SDS011;11220;48.812;9.128;2022-10-31T08:26:35;0.30;;;0.30;;
22107;SDS011;11220;48.812;9.128;2022-10-31T08:29:00;0.40;;;0.38;;
22107;SDS011;11220;48.812;9.128;2022-10-31T08:31:26;0.35;;;0.30;;
22107;SDS011;11220;48.812;9.128;2022-10-31T08:33:53;0.30;;;0.30;;
22107;SDS011;11220;48.812;9.128;2022-10-31T08:36:19;0.40;;;0.40;;
22107;SDS011;11220;48.812;9.128;2022-10-31T08:38:46;0.47;;;0.45;;
22107;SDS011;11220;48.812;9.128;2022-10-31T08:41:38;0.40;;;0.20;;
22107;SDS011;11220;48.812;9.128;2022-10-31T08:44:03;0.30;;;0.30;;
22107;SDS011;11220;48.812;9.128;2022-10-31T08:46:29;0.35;;;0.35;;
22107;SDS011;11220;48.812;9.128;2022-10-31T08:48:54;0.93;;;0.30;;
22107;SDS011;11220;48.812;9.128;2022-10-31T08:51:20;0.30;;;0.28;;
22107;SDS011;11220;48.812;9.128;2022-10-31T08:53:45;0.95;;;0.52;;
22107;SDS011;11220;48.812;9.128;2022-10-31T08:56:11;0.50;;;0.40;;
22107;SDS011;11220;48.812;9.128;2022-10-31T08:58:36;0.38;;;0.30;;
22107;SDS011;11220;48.812;9.128;2022-10-31T09:01:02;0.43;;;0.30;;
22107;SDS011;11220;48.812;9.128;2022-10-31T09:03:28;0.57;;;0.57;;
22107;SDS011;11220;48.812;9.128;2022-10-31T09:05:59;0.40;;;0.28;;
22107;SDS011;11220;48.812;9.128;2022-10-31T09:08:28;0.35;;;0.30;;
22107;SDS011;11220;48.812;9.128;2022-10-31T09:10:58;0.43;;;0.30;;
22107;SDS011;11220;48.812;9.128;2022-10-31T09:13:24;0.40;;;0.30;;
22107;SDS011;11220;48.812;9.128;2022-10-31T09:15:49;0.30;;;0.30;;
22107;SDS011;11220;48.812;9.128;2022-10-31T09:18:16;0.28;;;0.28;;
22107;SDS011;11220;48.812;9.128;2022-10-31T09:20:44;0.35;;;0.32;;
22107;SDS011;11220;48.812;9.128;2022-10-31T09:23:14;0.77;;;0.40;;
22107;SDS011;11220;48.812;9.128;2022-10-31T09:25:44;0.50;;;0.30;;
22107;SDS011;11220;48.812;9.128;2022-10-31T09:28:14;0.47;;;0.40;;
22107;SDS011;11220;48.812;9.128;2022-10-31T09:30:41;0.30;;;0.30;;
22107;SDS011;11220;48.812;9.128;2022-10-31T09:33:11;0.40;;;0.40;;
22107;SDS011;11220;48.812;9.128;2022-10-31T09:35:37;0.40;;;0.40;;
22107;SDS011;11220;48.812;9.128;2022-10-31T09:38:08;0.40;;;0.40;;
22107;SDS011;11220;48.812;9.128;2022-10-31T09:40:41;0.65;;;0.55;;
22107;SDS011;11220;48.812;9.128;2022-10-31T09:50:58;0.50;;;0.50;;
22107;SDS011;11220;48.812;9.128;2022-10-31T09:53:34;0.50;;;0.40;;
22107;SDS011;11220;48.812;9.128;2022-10-31T09:56:10;0.52;;;0.35;;
22107;SDS011;11220;48.812;9.128;2022-10-31T09:58:42;0.32;;;0.32;;
22107;SDS011;11220;48.812;9.128;2022-10-31T10:01:19;0.50;;;0.40;;
22107;SDS011;11220;48.812;9.128;2022-10-31T10:04:19;0.40;;;0.40;;
22107;SDS011;11220;48.812;9.128;2022-10-31T10:09:51;0.30;;;0.30;;
22107;SDS011;11220;48.812;9.128;2022-10-31T10:26:31;1.02;;;0.40;;
22107;SDS011;11220;48.812;9.128;2022-10-31T10:32:01;0.98;;;0.60;;
22107;SDS011;11220;48.812;9.128;2022-10-31T10:34:36;0.60;;;0.50;;
22107;SDS011;11220;48.812;9.128;2022-10-31T10:37:23;0.60;;;0.32;;
22107;SDS011;11220;48.812;9.128;2022-10-31T10:39:55;0.52;;;0.50;;
22107;SDS011;11220;48.812;9.128;2022-10-31T10:42:26;0.40;;;0.40;;
22107;SDS011;11220;48.812;9.128;2022-10-31T10:45:15;0.40;;;0.35;;
22107;SDS011;11220;48.812;9.128;2022-10-31T10:48:12;0.90;;;0.45;;
22107;SDS011;11220;48.812;9.128;2022-10-31T10:53:16;0.43;;;0.30;;
22107;SDS011;11220;48.812;9.128;2022-10-31T10:55:58;0.60;;;0.60;;
22107;SDS011;11220;48.812;9.128;2022-10-31T10:58:38;0.47;;;0.40;;
22107;SDS011;11220;48.812;9.128;2022-10-31T11:01:10;1.05;;;0.50;;
22107;SDS011;11220;48.812;9.128;2022-10-31T11:03:37;0.75;;;0.50;;
22107;SDS011;11220;48.812;9.128;2022-10-31T11:06:03;0.98;;;0.43;;
22107;SDS011;11220;48.812;9.128;2022-10-31T11:08:30;0.43;;;0.43;;
22107;SDS011;11220;48.812;9.128;2022-10-31T11:11:04;0.47;;;0.40;;
22107;SDS011;11220;48.812;9.128;2022-10-31T11:13:47;0.60;;;0.40;;
22107;SDS011;11220;48.812;9.128;2022-10-31T11:16:37;0.40;;;0.40;;
22107;SDS011;11220;48.812;9.128;2022-10-31T11:19:07;0.70;;;0.40;;
22107;SDS011;11220;48.812;9.128;2022-10-31T11:21:41;0.75;;;0.55;;
22107;SDS011;11220;48.812;9.128;2022-10-31T11:26:35;0.65;;;0.47;;
22107;SDS011;11220;48.812;9.128;2022-10-31T11:29:13;0.73;;;0.50;;
22107;SDS011;11220;48.812;9.128;2022-10-31T11:31:45;0.90;;;0.60;;
22107;SDS011;11220;48.812;9.128;2022-10-31T11:37:01;0.63;;;0.63;;
22107;SDS011;11220;48.812;9.128;2022-10-31T11:39:33;0.60;;;0.32;;
22107;SDS011;11220;48.812;9.128;2022-10-31T11:42:10;0.75;;;0.40;;
22107;SDS011;11220;48.812;9.128;2022-10-31T11:44:36;0.68;;;0.60;;
22107;SDS011;11220;48.812;9.128;2022-10-31T11:47:10;0.55;;;0.40;;
22107;SDS011;11220;48.812;9.128;2022-10-31T11:49:40;0.65;;;0.50;;
22107;SDS011;11220;48.812;9.128;2022-10-31T11:52:20;0.40;;;0.40;;
22107;SDS011;11220;48.812;9.128;2022-10-31T11:54:59;0.60;;;0.50;;
22107;SDS011;11220;48.812;9.128;2022-10-31T11:57:56;0.70;;;0.47;;
22107;SDS011;11220;48.812;9.128;2022-10-31T12:02:51;0.80;;;0.65;;
22107;SDS011;11220;48.812;9.128;2022-10-31T12:05:28;0.60;;;0.50;;
22107;SDS011;11220;48.812;9.128;2022-10-31T12:07:58;0.50;;;0.50;;
22107;SDS011;11220;48.812;9.128;2022-10-31T12:10:25;0.40;;;0.40;;
22107;SDS011;11220;48.812;9.128;2022-10-31T12:15:55;1.00;;;0.60;;
22107;SDS011;11220;48.812;9.128;2022-10-31T12:24:26;0.60;;;0.55;;
22107;SDS011;11220;48.812;9.128;2022-10-31T12:27:20;0.93;;;0.50;;
22107;SDS011;11220;48.812;9.128;2022-10-31T12:40:47;1.02;;;0.50;;
22107;SDS011;11220;48.812;9.128;2022-10-31T12:45:59;0.80;;;0.47;;
22107;SDS011;11220;48.812;9.128;2022-10-31T12:48:32;0.38;;;0.38;;
22107;SDS011;11220;48.812;9.128;2022-10-31T12:51:17;0.80;;;0.60;;
22107;SDS011;11220;48.812;9.128;2022-10-31T12:54:43;0.60;;;0.50;;
22107;SDS011;11220;48.812;9.128;2022-10-31T12:57:04;0.50;;;0.50;;
22107;SDS011;11220;48.812;9.128;2022-10-31T12:59:49;0.75;;;0.60;;
22107;SDS011;11220;48.812;9.128;2022-10-31T13:05:24;0.82;;;0.63;;
22107;SDS011;11220;48.812;9.128;2022-10-31T13:08:10;0.80;;;0.57;;
22107;SDS011;11220;48.812;9.128;2022-10-31T13:10:42;1.67;;;0.70;;
22107;SDS011;11220;48.812;9.128;2022-10-31T13:13:18;0.70;;;0.60;;
22107;SDS011;11220;48.812;9.128;2022-10-31T13:15:55;0.52;;;0.40;;
22107;SDS011;11220;48.812;9.128;2022-10-31T13:18:34;0.60;;;0.50;;
22107;SDS011;11220;48.812;9.128;2022-10-31T13:21:08;0.70;;;0.60;;
22107;SDS011;11220;48.812;9.128;2022-10-31T13:23:40;1.60;;;0.77;;
22107;SDS011;11220;48.812;9.128;2022-10-31T13:32:04;0.90;;;0.70;;
22107;SDS011;11220;48.812;9.128;2022-10-31T13:34:32;1.13;;;0.70;;
22107;SDS011;11220;48.812;9.128;2022-10-31T13:40:05;1.75;;;1.00;;
22107;SDS011;11220;48.812;9.128;2022-10-31T13:42:59;1.15;;;0.90;;
22107;SDS011;11220;48.812;9.128;2022-10-31T13:45:31;1.10;;;0.95;;
22107;SDS011;11220;48.812;9.128;2022-10-31T13:48:00;0.70;;;0.55;;
22107;SDS011;11220;48.812;9.128;2022-10-31T13:50:39;1.05;;;0.95;;
22107;SDS011;11220;48.812;9.128;2022-10-31T13:55:46;1.45;;;1.00;;
22107;SDS011;11220;48.812;9.128;2022-10-31T13:58:23;1.60;;;0.93;;
22107;SDS011;11220;48.812;9.128;2022-10-31T14:03:29;1.13;;;0.88;;
22107;SDS011;11220;48.812;9.128;2022-10-31T14:05:58;1.05;;;0.80;;
22107;SDS011;11220;48.812;9.128;2022-10-31T14:08:24;1.17;;;0.80;;
22107;SDS011;11220;48.812;9.128;2022-10-31T14:10:50;1.35;;;0.90;;
22107;SDS011;11220;48.812;9.128;2022-10-31T14:13:27;1.15;;;0.80;;
22107;SDS011;11220;48.812;9.128;2022-10-31T14:15:59;1.25;;;1.15;;
22107;SDS011;11220;48.812;9.128;2022-10-31T14:21:25;0.95;;;0.80;;
22107;SDS011;11220;48.812;9.128;2022-10-31T14:24:13;1.05;;;0.75;;
22107;SDS011;11220;48.812;9.128;2022-10-31T14:26:54;1.02;;;0.93;;
22107;SDS011;11220;48.812;9.128;2022-10-31T14:29:23;1.30;;;0.98;;
22107;SDS011;11220;48.812;9.128;2022-10-31T14:32:31;0.95;;;0.90;;
22107;SDS011;11220;48.812;9.128;2022-10-31T14:50:51;1.00;;;0.90;;
22107;SDS011;11220;48.812;9.128;2022-10-31T14:55:56;1.10;;;0.80;;
22107;SDS011;11220;48.812;9.128;2022-10-31T14:58:41;1.15;;;0.80;;
22107;SDS011;11220;48.812;9.128;2022-10-31T15:01:48;1.27;;;1.10;;
22107;SDS011;11220;48.812;9.128;2022-10-31T15:04:04;1.42;;;1.13;;
22107;SDS011;11220;48.812;9.128;2022-10-31T15:06:41;1.25;;;0.90;;
22107;SDS011;11220;48.812;9.128;2022-10-31T15:09:22;1.45;;;0.80;;
22107;SDS011;11220;48.812;9.128;2022-10-31T15:11:58;2.40;;;1.33;;
22107;SDS011;11220;48.812;9.128;2022-10-31T15:14:28;1.13;;;0.90;;
22107;SDS011;11220;48.812;9.128;2022-10-31T15:16:56;1.73;;;1.02;;
22107;SDS011;11220;48.812;9.128;2022-10-31T15:19:23;1.20;;;0.93;;
22107;SDS011;11220;48.812;9.128;2022-10-31T15:21:51;1.05;;;0.80;;
22107;SDS011;11220;48.812;9.128;2022-10-31T15:24:19;1.70;;;0.95;;
22107;SDS011;11220;48.812;9.128;2022-10-31T15:26:47;1.30;;;1.00;;
22107;SDS011;11220;48.812;9.128;2022-10-31T15:29:14;1.20;;;0.93;;
22107;SDS011;11220;48.812;9.128;2022-10-31T15:31:55;1.45;;;1.00;;
22107;SDS011;11220;48.812;9.128;2022-10-31T15:34:38;1.35;;;1.00;;
22107;SDS011;11220;48.812;9.128;2022-10-31T15:37:09;1.08;;;0.85;;
22107;SDS011;11220;48.812;9.128;2022-10-31T15:39:37;1.02;;;0.90;;
22107;SDS011;11220;48.812;9.128;2022-10-31T15:42:02;1.10;;;0.95;;
22107;SDS011;11220;48.812;9.128;2022-10-31T15:44:30;2.40;;;0.98;;
22107;SDS011;11220;48.812;9.128;2022-10-31T15:46:59;1.05;;;0.90;;
22107;SDS011;11220;48.812;9.128;2022-10-31T15:51:52;1.50;;;1.10;;
22107;SDS011;11220;48.812;9.128;2022-10-31T15:54:17;1.42;;;1.00;;
22107;SDS011;11220;48.812;9.128;2022-10-31T15:56:43;1.13;;;0.90;;
22107;SDS011;11220;48.812;9.128;2022-10-31T15:59:16;1.70;;;1.27;;
22107;SDS011;11220;48.812;9.128;2022-10-31T16:02:02;1.48;;;1.20;;
22107;SDS011;11220;48.812;9.128;2022-10-31T16:04:34;1.50;;;0.88;;
22107;SDS011;11220;48.812;9.128;2022-10-31T16:07:01;1.80;;;1.23;;
22107;SDS011;11220;48.812;9.128;2022-10-31T16:09:28;1.00;;;0.80;;
22107;SDS011;11220;48.812;9.128;2022-10-31T16:11:55;1.30;;;1.20;;
22107;SDS011;11220;48.812;9.128;2022-10-31T16:14:23;1.52;;;1.13;;
22107;SDS011;11220;48.812;9.128;2022-10-31T16:16:52;2.08;;;1.20;;
22107;SDS011;11220;48.812;9.128;2022-10-31T16:19:27;0.98;;;0.90;;
22107;SDS011;11220;48.812;9.128;2022-10-31T16:22:06;1.90;;;0.93;;
22107;SDS011;11220;48.812;9.128;2022-10-31T16:24:46;2.08;;;1.10;;
22107;SDS011;11220;48.812;9.128;2022-10-31T16:27:17;1.40;;;0.95;;
22107;SDS011;11220;48.812;9.128;2022-10-31T16:30:24;1.65;;;1.10;;
22107;SDS011;11220;48.812;9.128;2022-10-31T16:33:01;1.30;;;1.10;;
22107;SDS011;11220;48.812;9.128;2022-10-31T16:35:34;1.75;;;1.15;;
22107;SDS011;11220;48.812;9.128;2022-10-31T16:38:02;1.25;;;0.95;;
22107;SDS011;11220;48.812;9.128;2022-10-31T16:40:29;1.05;;;0.90;;
22107;SDS011;11220;48.812;9.128;2022-10-31T16:42:58;1.35;;;1.15;;
22107;SDS011;11220;48.812;9.128;2022-10-31T16:45:26;1.67;;;1.00;;
22107;SDS011;11220;48.812;9.128;2022-10-31T16:47:54;0.85;;;0.85;;
22107;SDS011;11220;48.812;9.128;2022-10-31T16:50:30;1.90;;;1.10;;
22107;SDS011;11220;48.812;9.128;2022-10-31T16:52:56;1.02;;;0.93;;
22107;SDS011;11220;48.812;9.128;2022-10-31T16:55:22;1.05;;;0.88;;
22107;SDS011;11220;48.812;9.128;2022-10-31T16:57:48;1.00;;;0.90;;
22107;SDS011;11220;48.812;9.128;2022-10-31T17:00:18;1.15;;;0.80;;
22107;SDS011;11220;48.812;9.128;2022-10-31T17:02:45;1.40;;;1.02;;
22107;SDS011;11220;48.812;9.128;2022-10-31T17:05:13;1.33;;;0.88;;
22107;SDS011;11220;48.812;9.128;2022-10-31T17:07:40;1.20;;;1.00;;
22107;SDS011;11220;48.812;9.128;2022-10-31T17:10:07;1.48;;;1.17;;
22107;SDS011;11220;48.812;9.128;2022-10-31T17:12:34;1.13;;;0.95;;
22107;SDS011;11220;48.812;9.128;2022-10-31T17:14:59;1.10;;;0.98;;
22107;SDS011;11220;48.812;9.128;2022-10-31T17:17:25;1.20;;;1.10;;